If you wish to contribute or participate in the discussions about articles you are invited to join SKYbrary as a registered user

 Actions

Kostanay West Airport

From SKYbrary Wiki

UAUU
Airport
ICAO: UAUU – IATA: KSN
Summary
Name Kostanay West Airport
Region Asia and Pacific
Territory Kazakhstan KZ.gif
Location Kostanay
Serving Kostanay
Elevation 181.356 m
595 ft
595 ft181.356 m
Coordinates 53° 12' 25.00" N, 63° 33' 1.00" E
Runways
Designator Length Width Surface ROPS
15/33 2484 m8,149.606 ft
48 m157.48 ft
ASP /


METAR
Observation UAUU 280230Z 32004MPS CAVOK M08/M09 Q1029 R33/850047 NOSIG RMK QFE756/1008
Station Kostanay
Date/Time 28 October 2020 02:30:00
Wind direction 320°
Wind speed kts
Lowest cloud amount clouds and visibility OK
Temperature
Dew point
Humidity 92%
QNH 1029 hPa
Weather condition n/a

Description

Kostanay Airport is an airport located 2 km southwest of Kostanay, Kazakhstan.